ACWS

AeroClub Weather Station
Hwc
0
Xwc
3
Wind
[m/s]
Tmp/Dew
[Co]
QNH
[hPa]
250o / 3 25.8 / 17.8 1010
cloud base: 979m
2024-07-21 11:54:07
Pécs
03:16z
18:31z
LHPP 210915Z AUTO 23006KT 190V290 CAVOK 24/17 Q1011

TAF LHPP 210815Z 2109/2118 29008KT 9999 SCT040 BKN070 
  PROB40 
  TEMPO 2109/2118 VRB12KT 8000 SHRA SCT035TCU BKN060 
  BECMG 2111/2114 CAVOK 
  BECMG 2115/2118 35004KT
Teljes képernyő
Pécs-Pogány repülőtér - 1 kameraképe